createdAt,value
2024-02-08T00:00:26.810Z,99981.97
2024-02-08T00:02:53.281Z,99977.13
2024-02-08T00:05:19.789Z,99971.81
2024-02-08T00:07:46.310Z,99977.44
2024-02-08T00:10:12.863Z,99973.34
2024-02-08T00:12:41.094Z,99969.75
2024-02-08T00:15:08.439Z,99969.00
2024-02-08T00:17:35.045Z,99966.66
2024-02-08T00:20:01.659Z,99963.84
2024-02-08T00:22:28.208Z,99966.66
2024-02-08T00:24:57.590Z,99959.47
2024-02-08T00:27:24.075Z,99948.22
2024-02-08T00:29:50.637Z,99949.78
2024-02-08T00:32:17.107Z,99960.25
2024-02-08T00:34:43.864Z,99959.47
2024-02-08T00:37:10.635Z,99955.09
2024-02-08T00:39:43.505Z,99947.44
2024-02-08T00:42:12.509Z,99955.09
2024-02-08T00:44:45.229Z,99953.06
2024-02-08T00:47:12.232Z,99953.84
2024-02-08T00:49:40.604Z,99942.56
2024-02-08T00:52:11.219Z,99938.22
2024-02-08T00:54:37.863Z,99933.88
2024-02-08T00:57:11.659Z,99938.22
2024-02-08T00:59:38.936Z,99942.31
2024-02-08T01:02:06.740Z,99957.63
2024-02-08T01:04:34.497Z,99954.06
2024-02-08T01:07:01.217Z,99954.06
2024-02-08T01:09:27.873Z,99949.19
2024-02-08T01:11:54.434Z,99953.28
2024-02-08T01:14:23.995Z,99949.66
2024-02-08T01:16:55.405Z,99937.66
2024-02-08T01:19:23.918Z,99942.81
2024-02-08T01:21:51.518Z,99941.22
2024-02-08T01:24:19.558Z,99951.72
2024-02-08T01:26:47.451Z,99954.81
2024-02-08T01:29:14.609Z,99941.22
2024-02-08T01:31:42.073Z,99935.59
2024-02-08T01:34:09.510Z,99947.63
2024-02-08T01:36:42.886Z,99945.63
2024-02-08T01:39:23.801Z,99948.44
2024-02-08T01:41:53.749Z,99950.94
2024-02-08T01:44:22.726Z,99953.28
2024-02-08T01:46:51.342Z,99958.91
2024-02-08T01:49:22.495Z,99956.56
2024-02-08T01:51:49.878Z,99961.44
2024-02-08T01:54:18.600Z,99967.81
2024-02-08T01:56:45.770Z,99955.81
2024-02-08T01:59:14.736Z,99961.44
2024-02-08T02:01:47.462Z,99955.03
2024-02-08T02:04:16.934Z,99954.53
2024-02-08T02:06:44.342Z,99956.38
2024-02-08T02:09:25.111Z,99949.19
2024-02-08T02:12:00.648Z,99943.84
2024-02-08T02:14:30.388Z,99955.59
2024-02-08T02:17:20.076Z,99950.75
2024-02-08T02:19:47.993Z,99964.81
2024-02-08T02:22:16.721Z,99962.50
2024-02-08T02:24:43.483Z,99953.56
2024-02-08T02:27:12.088Z,99941.53
2024-02-08T02:29:39.685Z,99955.09
2024-02-08T02:32:08.962Z,99963.25
2024-02-08T02:37:03.997Z,99936.38
2024-02-08T02:39:32.540Z,99915.16
2024-02-08T02:42:00.214Z,99891.00
2024-02-08T02:44:30.312Z,99892.75
2024-02-08T02:47:05.093Z,99892.00
2024-02-08T02:49:38.115Z,99903.25
2024-02-08T02:52:09.260Z,99909.63
2024-02-08T02:54:36.675Z,99920.88
2024-02-08T02:57:04.196Z,99917.31
2024-02-08T02:59:31.687Z,99916.31
2024-02-08T03:01:58.466Z,99927.56
2024-02-08T03:04:25.121Z,99931.16
2024-02-08T03:06:54.397Z,99918.38
2024-02-08T03:09:28.375Z,99912.44
2024-02-08T03:11:58.407Z,99907.59
2024-02-08T03:14:26.057Z,99907.59
2024-02-08T03:16:52.822Z,99896.84
2024-02-08T03:19:21.650Z,99898.38
2024-02-08T03:21:48.349Z,99909.38
2024-02-08T03:24:14.901Z,99909.38
2024-02-08T03:26:50.716Z,99905.75
2024-02-08T03:29:17.762Z,99913.41
2024-02-08T03:31:46.509Z,99901.41
2024-02-08T03:34:17.831Z,99889.38
2024-02-08T03:36:48.265Z,99885.03
2024-02-08T03:39:26.458Z,99892.69
2024-02-08T03:42:02.816Z,99886.25
2024-02-08T03:44:31.798Z,99877.81
2024-02-08T03:47:09.008Z,99876.28
2024-02-08T03:49:39.331Z,99867.84
2024-02-08T03:52:10.032Z,99879.09
2024-02-08T03:54:37.874Z,99883.19
2024-02-08T03:57:07.202Z,99873.97
2024-02-08T03:59:35.294Z,99874.75
2024-02-08T04:02:04.457Z,99883.66
2024-02-08T04:04:53.878Z,99878.81
2024-02-08T04:07:35.442Z,99877.25
2024-02-08T04:10:24.233Z,99883.66
2024-02-08T04:13:09.483Z,99880.06
2024-02-08T04:15:56.675Z,99878.53
2024-02-08T04:18:43.066Z,99880.56
2024-02-08T04:21:28.654Z,99884.16
2024-02-08T04:24:14.016Z,99879.81
2024-02-08T04:27:00.321Z,99877.75
2024-02-08T04:29:45.643Z,99873.41
2024-02-08T04:32:30.672Z,99872.91
2024-02-08T04:35:15.913Z,99873.41
2024-02-08T04:38:00.800Z,99870.56
2024-02-08T04:40:46.204Z,99869.31
2024-02-08T04:43:30.980Z,99872.59
2024-02-08T04:46:16.023Z,99877.00
2024-02-08T04:49:00.977Z,99870.56
2024-02-08T04:51:46.025Z,99872.59
2024-02-08T04:54:12.523Z,99866.97
2024-02-08T04:56:39.149Z,99861.34
2024-02-08T04:59:20.715Z,99857.50
2024-02-08T05:01:50.513Z,99848.56
2024-02-08T05:04:19.663Z,99847.03
2024-02-08T05:06:46.967Z,99841.41
2024-02-08T05:09:20.352Z,99842.16
2024-02-08T05:11:50.213Z,99843.72
2024-02-08T05:14:20.502Z,99849.84
2024-02-08T05:16:47.071Z,99855.47
2024-02-08T05:19:15.672Z,99847.03
2024-02-08T05:21:43.423Z,99854.19
2024-02-08T05:24:14.188Z,99845.47
2024-02-08T05:26:41.973Z,99838.59
2024-02-08T05:29:09.563Z,99835.78
2024-02-08T05:31:43.068Z,99837.81
2024-02-08T05:34:17.014Z,99831.38
2024-02-08T05:36:45.377Z,99819.66
2024-02-08T05:39:12.665Z,99818.59
2024-02-08T05:41:39.239Z,99826.56
2024-02-08T05:44:08.505Z,99821.41
2024-02-08T05:46:41.059Z,99825.50
2024-02-08T05:49:16.164Z,99826.34
2024-02-08T05:51:53.703Z,99831.50
2024-02-08T05:54:32.625Z,99823.06
2024-02-08T05:57:04.299Z,99820.25
2024-02-08T05:59:32.888Z,99813.03
2024-02-08T06:02:00.621Z,99814.25
2024-02-08T06:04:35.636Z,99824.72
2024-02-08T06:07:13.832Z,99824.78
2024-02-08T06:09:50.296Z,99815.59
2024-02-08T06:12:37.741Z,99816.66
2024-02-08T06:15:16.004Z,99827.91
2024-02-08T06:17:47.023Z,99829.16
2024-02-08T06:20:15.927Z,99825.28
2024-02-08T06:22:44.905Z,99840.13
2024-02-08T06:25:29.057Z,99832.66
2024-02-08T06:27:59.357Z,99831.13
2024-02-08T06:30:32.029Z,99818.03
2024-02-08T06:33:18.037Z,99823.19
2024-02-08T06:35:46.458Z,99825.50
2024-02-08T06:38:29.445Z,99828.81
2024-02-08T06:40:56.407Z,99828.00
2024-02-08T06:43:26.242Z,99817.56
2024-02-08T06:45:54.396Z,99815.53
2024-02-08T06:48:34.639Z,99811.63
2024-02-08T06:51:23.628Z,99811.13
2024-02-08T06:54:10.062Z,99833.63
2024-02-08T06:56:58.685Z,99823.66
2024-02-08T06:59:43.427Z,99814.44
2024-02-08T07:02:28.861Z,99817.25
2024-02-08T07:05:14.440Z,99822.13
2024-02-08T07:08:00.679Z,99822.13
2024-02-08T07:10:46.348Z,99824.94
2024-02-08T07:13:31.554Z,99824.94
2024-02-08T07:16:16.772Z,99825.50
2024-02-08T07:19:06.927Z,99816.50
2024-02-08T07:21:54.209Z,99808.81
2024-02-08T07:24:39.224Z,99800.69
2024-02-08T07:27:24.795Z,99808.81
2024-02-08T07:30:09.586Z,99812.91
2024-02-08T07:32:54.586Z,99809.31
2024-02-08T07:35:39.494Z,99804.16
2024-02-08T07:38:08.874Z,99786.53
2024-02-08T07:40:39.081Z,99785.75
2024-02-08T07:43:14.426Z,99782.16
2024-02-08T07:45:48.651Z,99774.25
2024-02-08T07:48:37.115Z,99773.47
2024-02-08T07:51:04.824Z,99773.16
2024-02-08T07:53:47.248Z,99772.13
2024-02-08T07:56:47.271Z,99765.69
2024-02-08T07:59:17.311Z,99768.25
2024-02-08T08:01:50.865Z,99762.63
2024-02-08T08:04:40.864Z,99754.19
2024-02-08T08:07:10.784Z,99756.41
2024-02-08T08:09:40.387Z,99754.22
2024-02-08T08:12:07.093Z,99754.06
2024-02-08T08:14:40.134Z,99760.44
2024-02-08T08:17:18.079Z,99739.03
2024-02-08T08:19:48.136Z,99740.84
2024-02-08T08:22:41.585Z,99736.00
2024-02-08T08:25:13.822Z,99740.84
2024-02-08T08:28:00.444Z,99740.38
2024-02-08T08:30:32.609Z,99743.19
2024-02-08T08:33:00.553Z,99737.25
2024-02-08T08:35:37.774Z,99730.38
2024-02-08T08:38:21.541Z,99717.59
2024-02-08T08:40:50.123Z,99715.81
2024-02-08T08:43:21.685Z,99712.53
2024-02-08T08:45:52.235Z,99705.63
2024-02-08T08:48:23.058Z,99693.16
2024-02-08T08:50:59.248Z,99680.63
2024-02-08T08:53:28.673Z,99675.78
2024-02-08T08:55:56.784Z,99667.34
2024-02-08T08:58:28.915Z,99669.38
2024-02-08T09:01:12.887Z,99666.56
2024-02-08T09:03:41.025Z,99664.53
2024-02-08T09:06:13.381Z,99658.44
2024-02-08T09:08:44.292Z,99667.63
2024-02-08T09:11:15.271Z,99668.41
2024-02-08T09:16:31.326Z,99650.25
2024-02-08T09:19:01.508Z,99648.22
2024-02-08T09:21:36.991Z,99647.75
2024-02-08T09:24:05.315Z,99654.59
2024-02-08T09:26:57.829Z,99650.53
2024-02-08T09:29:31.307Z,99643.66
2024-02-08T09:32:16.006Z,99643.66
2024-02-08T09:34:43.169Z,99639.56
2024-02-08T09:37:10.376Z,99635.22
2024-02-08T09:39:54.980Z,99640.34
2024-02-08T09:42:29.460Z,99629.09
2024-02-08T09:45:19.731Z,99615.81
2024-02-08T09:47:53.957Z,99606.59
2024-02-08T09:50:37.581Z,99600.97
2024-02-08T09:53:17.109Z,99592.56
2024-02-08T09:55:57.219Z,99591.78
2024-02-08T09:58:43.243Z,99582.84
2024-02-08T10:01:24.105Z,99580.81
2024-02-08T10:04:07.295Z,99578.00
2024-02-08T10:06:47.453Z,99563.94
2024-02-08T10:09:34.057Z,99556.56
2024-02-08T10:12:09.853Z,99560.16
2024-02-08T10:14:45.914Z,99550.47
2024-02-08T10:17:25.722Z,99549.19
2024-02-08T10:20:18.919Z,99557.13
2024-02-08T10:23:10.549Z,99553.81
2024-02-08T10:25:56.457Z,99551.50
2024-02-08T10:28:24.943Z,99541.03
2024-02-08T10:31:00.661Z,99543.34
2024-02-08T10:33:36.938Z,99531.59
2024-02-08T10:36:22.176Z,99534.69
2024-02-08T10:38:58.723Z,99526.53
2024-02-08T10:41:58.679Z,99520.41
2024-02-08T10:44:30.839Z,99525.53
2024-02-08T10:47:07.272Z,99517.38
2024-02-08T10:49:46.186Z,99519.69
2024-02-08T10:52:17.245Z,99517.66
2024-02-08T10:54:50.522Z,99517.16
2024-02-08T10:57:35.773Z,99503.88
2024-02-08T11:00:22.794Z,99496.69
2024-02-08T11:03:01.310Z,99492.63
2024-02-08T11:05:27.973Z,99476.00
2024-02-08T11:07:55.138Z,99466.81
2024-02-08T11:10:25.279Z,99457.88
2024-02-08T11:12:58.102Z,99449.69
2024-02-08T11:15:40.420Z,99438.72
2024-02-08T11:18:26.663Z,99432.59
2024-02-08T11:21:04.877Z,99422.09
2024-02-08T11:23:46.989Z,99432.84
2024-02-08T11:26:14.338Z,99415.47
2024-02-08T11:28:49.033Z,99406.28
2024-02-08T11:31:18.836Z,99402.69
2024-02-08T11:33:46.322Z,99400.66
2024-02-08T11:36:15.754Z,99396.78
2024-02-08T11:38:48.328Z,99397.03
2024-02-08T11:41:21.778Z,99391.13
2024-02-08T11:44:07.216Z,99397.75
2024-02-08T11:46:39.193Z,99380.13
2024-02-08T11:49:16.119Z,99376.53
2024-02-08T11:51:46.771Z,99375.00
2024-02-08T11:54:29.999Z,99357.34
2024-02-08T11:57:07.152Z,99362.97
2024-02-08T11:59:37.222Z,99365.00
2024-02-08T12:02:09.201Z,99353.00
2024-02-08T12:04:42.882Z,99349.41
2024-02-08T12:07:15.720Z,99351.47
2024-02-08T12:09:42.363Z,99352.22
2024-02-08T12:12:10.101Z,99351.47
2024-02-08T12:14:40.475Z,99354.53
2024-02-08T12:17:11.610Z,99340.97
2024-02-08T12:19:39.222Z,99351.47
2024-02-08T12:22:06.514Z,99347.88
2024-02-08T12:24:34.512Z,99351.19
2024-02-08T12:27:16.128Z,99352.47
2024-02-08T12:29:47.170Z,99349.66
2024-02-08T12:32:18.071Z,99357.31
2024-02-08T12:34:51.717Z,99362.94
2024-02-08T12:37:23.939Z,99364.47
2024-02-08T12:39:51.142Z,99374.97
2024-02-08T12:42:19.397Z,99363.72
2024-02-08T12:44:51.072Z,99356.81
2024-02-08T12:47:20.787Z,99345.84
2024-02-08T12:49:48.930Z,99340.97
2024-02-08T12:52:17.493Z,99353.00
2024-02-08T12:54:54.309Z,99339.19
2024-02-08T12:57:23.370Z,99322.59
2024-02-08T13:00:02.039Z,99311.06
2024-02-08T13:02:34.197Z,99307.00
2024-02-08T13:05:05.468Z,99297.50
2024-02-08T13:07:36.451Z,99274.75
2024-02-08T13:10:15.699Z,99272.72
2024-02-08T13:12:43.098Z,99274.25
2024-02-08T13:15:21.876Z,99252.75
2024-02-08T13:17:48.521Z,99235.88
2024-02-08T13:20:17.986Z,99233.06
2024-02-08T13:22:48.946Z,99227.44
2024-02-08T13:25:17.606Z,99219.00
2024-02-08T13:27:49.465Z,99217.47
2024-02-08T13:30:16.661Z,99218.72
2024-02-08T13:32:52.873Z,99213.88
2024-02-08T13:35:20.829Z,99212.34
2024-02-08T13:37:48.526Z,99207.25
2024-02-08T13:40:16.341Z,99205.97
2024-02-08T13:42:51.960Z,99212.06
2024-02-08T13:45:26.393Z,99204.44
2024-02-08T13:47:58.264Z,99209.28
2024-02-08T13:50:30.726Z,99218.47
2024-02-08T13:52:59.003Z,99206.72
2024-02-08T13:55:45.253Z,99192.16
2024-02-08T13:58:19.558Z,99193.19
2024-02-08T14:00:46.469Z,99179.38
2024-02-08T14:03:17.824Z,99175.53
2024-02-08T14:05:51.822Z,99175.81
2024-02-08T14:08:19.583Z,99184.50
2024-02-08T14:10:46.619Z,99163.56
2024-02-08T14:13:17.768Z,99168.19
2024-02-08T14:15:49.699Z,99155.66
2024-02-08T14:18:28.901Z,99161.28
2024-02-08T14:20:59.258Z,99149.00
2024-02-08T14:23:34.341Z,99142.88
2024-02-08T14:26:04.930Z,99134.69
2024-02-08T14:28:32.315Z,99139.81
2024-02-08T14:31:01.789Z,99124.47
2024-02-08T14:33:33.494Z,99119.09
2024-02-08T14:36:07.349Z,99118.59
2024-02-08T14:38:37.529Z,99114.50
2024-02-08T14:41:33.948Z,99102.50
2024-02-08T14:44:08.361Z,99105.31
2024-02-08T14:46:43.341Z,99104.03
2024-02-08T14:49:27.797Z,99089.97
2024-02-08T14:52:16.319Z,99098.41
2024-02-08T14:54:43.603Z,99091.47
2024-02-08T14:57:11.911Z,99077.41
2024-02-08T14:59:59.320Z,99064.91
2024-02-08T15:02:30.686Z,99054.41
2024-02-08T15:05:02.004Z,99053.16
2024-02-08T15:07:49.422Z,99052.38
2024-02-08T15:10:21.861Z,99042.66
2024-02-08T15:12:58.632Z,99047.00
2024-02-08T15:15:34.235Z,99037.78
2024-02-08T15:18:14.317Z,99032.94
2024-02-08T15:20:57.531Z,99017.31
2024-02-08T15:23:35.186Z,99010.69
2024-02-08T15:26:13.922Z,99011.47
2024-02-08T15:28:44.072Z,99000.94
2024-02-08T15:31:23.086Z,98986.13
2024-02-08T15:34:08.482Z,98979.22
2024-02-08T15:36:49.229Z,98977.19
2024-02-08T15:39:35.321Z,98969.25
2024-02-08T15:42:18.630Z,98975.91
2024-02-08T15:44:54.908Z,98966.16
2024-02-08T15:47:22.201Z,98964.13
2024-02-08T15:49:55.463Z,98953.16
2024-02-08T15:52:24.252Z,98957.72
2024-02-08T15:54:56.935Z,98949.28
2024-02-08T15:57:30.171Z,98949.28
2024-02-08T16:00:01.725Z,98939.81
2024-02-08T16:02:28.774Z,98930.88
2024-02-08T16:05:13.081Z,98934.97
2024-02-08T16:07:43.839Z,98924.47
2024-02-08T16:10:25.503Z,98916.03
2024-02-08T16:13:06.570Z,98909.38
2024-02-08T16:15:53.033Z,98907.84
2024-02-08T16:18:26.349Z,98898.63
2024-02-08T16:20:56.977Z,98904.53
2024-02-08T16:23:44.878Z,98898.13
2024-02-08T16:26:13.640Z,98903.22
2024-02-08T16:28:51.307Z,98891.97
2024-02-08T16:31:18.276Z,98882.00
2024-02-08T16:33:49.561Z,98888.16
2024-02-08T16:36:31.129Z,98888.41
2024-02-08T16:39:09.135Z,98879.19
2024-02-08T16:41:57.756Z,98872.78
2024-02-08T16:44:38.819Z,98869.97
2024-02-08T16:47:28.404Z,98872.78
2024-02-08T16:49:56.928Z,98869.47
2024-02-08T16:52:29.262Z,98863.31
2024-02-08T16:55:00.223Z,98859.78
2024-02-08T16:57:33.305Z,98853.63
2024-02-08T17:00:20.139Z,98885.59
2024-02-08T17:03:05.138Z,98870.75
2024-02-08T17:05:50.589Z,98850.03
2024-02-08T17:08:37.437Z,98847.75
2024-02-08T17:11:16.525Z,98850.81
2024-02-08T17:13:52.066Z,98847.22
2024-02-08T17:16:31.795Z,98850.03
2024-02-08T17:19:18.536Z,98846.72
2024-02-08T17:21:51.107Z,98844.41
2024-02-08T17:24:30.711Z,98850.03
2024-02-08T17:27:00.945Z,98850.81
2024-02-08T17:29:36.762Z,98849.25
2024-02-08T17:32:08.973Z,98840.81
2024-02-08T17:34:38.582Z,98835.19
2024-02-08T17:37:05.462Z,98835.19
2024-02-08T17:39:43.889Z,98833.66
2024-02-08T17:42:13.697Z,98825.97
2024-02-08T17:44:50.559Z,98827.50
2024-02-08T17:47:21.574Z,98819.31
2024-02-08T17:49:48.139Z,98818.03
2024-02-08T17:52:15.783Z,98821.63
2024-02-08T17:54:53.269Z,98819.03
2024-02-08T17:57:26.163Z,98814.94
2024-02-08T18:00:00.828Z,98811.38
2024-02-08T18:02:33.268Z,98812.13
2024-02-08T18:05:02.619Z,98809.81
2024-02-08T18:07:31.081Z,98809.31
2024-02-08T18:10:17.880Z,98803.69
2024-02-08T18:12:45.208Z,98797.00
2024-02-08T18:15:22.957Z,98797.78
2024-02-08T18:17:54.919Z,98804.72
2024-02-08T18:20:22.650Z,98802.91
2024-02-08T18:22:52.336Z,98807.22
2024-02-08T18:25:31.499Z,98806.50
2024-02-08T18:28:00.479Z,98803.16
2024-02-08T18:30:31.154Z,98797.53
2024-02-08T18:33:20.266Z,98797.53
2024-02-08T18:35:48.954Z,98799.56
2024-02-08T18:38:20.083Z,98796.22
2024-02-08T18:40:49.203Z,98796.22
2024-02-08T18:43:18.173Z,98791.91
2024-02-08T18:45:50.090Z,98794.94
2024-02-08T18:48:21.510Z,98785.19
2024-02-08T18:50:50.282Z,98788.28
2024-02-08T18:53:19.792Z,98781.13
2024-02-08T18:55:47.328Z,98782.38
2024-02-08T18:58:14.982Z,98786.75
2024-02-08T19:00:47.654Z,98775.22
2024-02-08T19:03:21.284Z,98777.53
2024-02-08T19:05:49.696Z,98779.56
2024-02-08T19:08:21.107Z,98774.72
2024-02-08T19:10:53.005Z,98767.03
2024-02-08T19:13:29.665Z,98771.91
2024-02-08T19:15:58.467Z,98770.66
2024-02-08T19:18:28.051Z,98761.69
2024-02-08T19:20:57.161Z,98763.75
2024-02-08T19:23:25.346Z,98760.41
2024-02-08T19:25:58.707Z,98760.94
2024-02-08T19:28:25.953Z,98746.84
2024-02-08T19:30:53.399Z,98748.38
2024-02-08T19:33:25.148Z,98742.50
2024-02-08T19:35:55.868Z,98734.81
2024-02-08T19:38:27.298Z,98734.81
2024-02-08T19:40:57.289Z,98729.19
2024-02-08T19:43:27.937Z,98734.06
2024-02-08T19:45:55.023Z,98721.53
2024-02-08T19:48:26.230Z,98719.97
2024-02-08T19:50:53.983Z,98718.72
2024-02-08T19:53:29.176Z,98725.09
2024-02-08T19:55:56.642Z,98728.69
2024-02-08T19:58:24.247Z,98719.47
2024-02-08T20:00:53.993Z,98712.31
2024-02-08T20:03:28.047Z,98705.16
2024-02-08T20:05:56.284Z,98715.63
2024-02-08T20:08:24.034Z,98704.13
2024-02-08T20:10:52.615Z,98701.31
2024-02-08T20:13:22.872Z,98702.88
2024-02-08T20:15:49.507Z,98702.09
2024-02-08T20:18:19.725Z,98701.31
2024-02-08T20:20:48.083Z,98695.69
2024-02-08T20:23:20.128Z,98698.75
2024-02-08T20:25:49.829Z,98691.59
2024-02-08T20:28:17.352Z,98696.47
2024-02-08T20:30:51.836Z,98705.69
2024-02-08T20:33:19.863Z,98696.47
2024-02-08T20:35:47.756Z,98694.94
2024-02-08T20:38:19.434Z,98697.22
2024-02-08T20:40:47.277Z,98697.75
2024-02-08T20:43:18.860Z,98690.06
2024-02-08T20:45:50.491Z,98692.88
2024-02-08T20:48:21.148Z,98693.63
2024-02-08T20:50:48.599Z,98695.69
2024-02-08T20:53:18.703Z,98685.97
2024-02-08T20:55:52.458Z,98675.97
2024-02-08T20:58:20.649Z,98679.56
2024-02-08T21:00:52.741Z,98679.88
2024-02-08T21:03:22.159Z,98672.41
2024-02-08T21:05:55.344Z,98677.28
2024-02-08T21:08:24.717Z,98670.88
2024-02-08T21:10:55.875Z,98669.59
2024-02-08T21:13:23.134Z,98674.47
2024-02-08T21:15:50.953Z,98668.06
2024-02-08T21:18:21.131Z,98658.88
2024-02-08T21:20:54.931Z,98667.31
2024-02-08T21:23:23.108Z,98670.34
2024-02-08T21:25:53.088Z,98671.13
2024-02-08T21:28:19.949Z,98659.88
2024-02-08T21:30:46.828Z,98665.75
2024-02-08T21:33:17.020Z,98660.13
2024-02-08T21:35:47.304Z,98672.13
2024-02-08T21:38:14.511Z,98670.59
2024-02-08T21:40:43.504Z,98671.38
2024-02-08T21:43:13.593Z,98662.69
2024-02-08T21:45:49.244Z,98656.28
2024-02-08T21:48:16.500Z,98655.53
2024-02-08T21:50:51.272Z,98656.78
2024-02-08T21:53:18.402Z,98648.91
2024-02-08T21:55:45.279Z,98667.31
2024-02-08T21:58:12.702Z,98665.50
2024-02-08T22:00:40.893Z,98655.78
2024-02-08T22:03:08.242Z,98655.78
2024-02-08T22:05:36.715Z,98660.66
2024-02-08T22:08:04.715Z,98657.34
2024-02-08T22:10:31.434Z,98656.06
2024-02-08T22:12:57.956Z,98663.72
2024-02-08T22:15:24.410Z,98659.88
2024-02-08T22:17:53.455Z,98648.63
2024-02-08T22:20:22.807Z,98655.03
2024-02-08T22:22:52.239Z,98642.22
2024-02-08T22:25:19.417Z,98649.13
2024-02-08T22:27:46.053Z,98633.81
2024-02-08T22:30:13.232Z,98635.88
2024-02-08T22:32:44.986Z,98635.13
2024-02-08T22:35:12.277Z,98633.06
2024-02-08T22:37:39.891Z,98626.66
2024-02-08T22:40:08.850Z,98619.53
2024-02-08T22:42:39.164Z,98619.28
2024-02-08T22:45:10.368Z,98613.63
2024-02-08T22:47:41.387Z,98610.81
2024-02-08T22:50:14.377Z,98600.34
2024-02-08T22:52:45.873Z,98596.75
2024-02-08T22:55:17.838Z,98598.06
2024-02-08T22:57:49.100Z,98595.47
2024-02-08T23:00:23.941Z,98591.13
2024-02-08T23:02:51.488Z,98591.13
2024-02-08T23:05:22.661Z,98589.09
2024-02-08T23:07:49.245Z,98577.59
2024-02-08T23:10:19.291Z,98576.81
2024-02-08T23:12:48.942Z,98570.44
2024-02-08T23:15:20.861Z,98573.25
2024-02-08T23:17:55.715Z,98569.66
2024-02-08T23:20:23.016Z,98576.06
2024-02-08T23:22:50.580Z,98571.69
2024-02-08T23:25:22.342Z,98569.66
2024-02-08T23:27:49.026Z,98569.91
2024-02-08T23:30:16.243Z,98564.28
2024-02-08T23:32:44.273Z,98558.88
2024-02-08T23:35:13.515Z,98570.13
2024-02-08T23:37:41.754Z,98562.47
2024-02-08T23:40:15.687Z,98558.88
2024-02-08T23:42:43.222Z,98553.03
2024-02-08T23:45:13.519Z,98554.03
2024-02-08T23:47:40.849Z,98546.88
2024-02-08T23:50:10.456Z,98544.81
2024-02-08T23:52:38.407Z,98542.00
2024-02-08T23:55:07.071Z,98535.63
2024-02-08T23:57:37.614Z,98536.38
